Latest Weather Observations for Rottnest Island

IDW60901

Issued at 5:01 pm WST Saturday 3 December 2022 (issued every 10 minutes, with the page automatically refreshed every 10 minutes)

About weather observations | Map of Perth area stations | Latest observations for Perth area | Other Formats
Station Details ID: 009193 Name: ROTTNEST ISLAND Lat: -32.01 Lon: 115.50 Height: 43.1 m
Data from the previous 72 hours. | See also: Recent months at Rottnest Island
Date/Time
WST
Temp
°C
App
Temp
°C
Dew
Point
°C
Rel
Hum
%
Delta-T
°C
Wind Press
QNH
hPa
Press
MSL
hPa
Rain since
9am
mm
Dir  Spd
km/h
Gust
km/h
Spd
kts
Gust
kts
03/05:00pm 21.6 16.7 19.0 85 1.6 SSW 43 54 23 29 1009.9 1009.7 0.0
03/04:30pm 21.4 16.9 19.0 86 1.5 SSW 41 52 22 28 1010.0 1009.8 0.0
03/04:00pm 21.3 16.6 18.7 85 1.6 SSW 41 54 22 29 1010.2 1010.0 0.0
03/03:30pm 21.4 16.9 18.2 82 2.0 SSW 39 52 21 28 1010.2 1010.0 0.0
03/03:00pm 21.3 15.7 17.5 79 2.3 SSW 43 52 23 28 1010.3 1010.1 0.0
03/02:30pm 21.7 16.6 16.9 74 2.9 SSW 39 46 21 25 1010.6 1010.4 0.0
03/02:00pm 21.7 16.6 16.9 74 2.9 SSW 39 46 21 25 1011.0 1010.8 0.0
03/01:30pm 21.3 16.3 16.0 72 3.2 SSW 37 44 20 24 1011.2 1011.0 0.0
03/01:00pm 21.2 16.9 16.0 72 3.1 SSW 33 43 18 23 1011.6 1011.4 0.0
03/12:30pm 20.9 16.6 15.4 71 3.3 SSW 32 39 17 21 1011.5 1011.3 0.0
03/12:00pm 20.5 16.5 15.1 71 3.2 SSW 30 35 16 19 1012.1 1011.9 0.0
03/11:30am 20.6 16.5 14.9 70 3.4 SSW 30 37 16 20 1012.1 1011.9 0.0
03/11:00am 20.8 17.4 15.8 73 3.0 SSW 28 33 15 18 1012.5 1012.3 0.0
03/10:30am 20.5 17.3 15.3 72 3.1 S 26 32 14 17 1012.3 1012.1 0.0
03/10:00am 19.7 16.5 14.3 71 3.1 S 24 30 13 16 1012.3 1012.1 0.0
03/09:30am 19.8 16.7 14.4 71 3.1 SSE 24 28 13 15 1012.2 1012.0 0.0
03/09:00am 19.1 15.8 13.9 72 3.0 SSE 24 28 13 15 1012.3 1012.1 0.0
03/08:30am 19.3 16.3 13.7 70 3.2 SSE 22 30 12 16 1012.4 1012.2 0.0
03/08:00am 18.7 15.7 13.8 73 2.8 SSE 22 28 12 15 1012.3 1012.1 0.0
03/07:30am 18.2 15.3 14.1 77 2.4 SSE 22 28 12 15 1012.2 1012.0 0.0
03/07:00am 17.7 14.7 14.8 83 1.7 SSE 24 30 13 16 1011.9 1011.7 0.0
03/06:30am 17.3 14.2 14.4 83 1.7 SE 24 30 13 16 1011.6 1011.4 0.0
03/06:00am 17.1 14.4 14.7 86 1.4 SE 22 30 12 16 1011.2 1011.0 0.0
03/05:30am 17.3 13.9 14.8 85 1.4 SE 26 32 14 17 1010.8 1010.6 0.0
03/05:00am 17.4 14.1 14.9 85 1.5 SE 26 33 14 18 1011.0 1010.8 0.0
03/04:30am 17.5 13.4 14.8 84 1.6 SE 30 35 16 19 1010.6 1010.4 0.0
03/04:00am 17.6 13.1 15.0 85 1.5 SE 32 39 17 21 1010.4 1010.2 0.0
03/03:30am 17.9 13.9 15.2 84 1.6 SSE 30 41 16 22 1010.0 1009.8 0.0
03/03:00am 18.4 13.1 16.2 87 1.3 SSE 39 46 21 25 1009.8 1009.6 0.0
03/02:30am 18.4 13.3 16.7 90 1.0 SSE 39 48 21 26 1009.6 1009.4 0.0
03/02:00am 18.2 14.2 17.6 96 0.4 S 35 44 19 24 1010.3 1010.1 0.0
03/01:30am 18.0 13.3 16.9 93 0.7 S 37 46 20 25 1010.3 1010.1 0.0
03/01:00am 18.1 13.3 17.6 97 0.3 S 39 44 21 24 1010.6 1010.4 0.0
03/12:30am 18.1 13.5 17.1 94 0.6 S 37 44 20 24 1010.7 1010.5 0.0
03/12:00am 18.1 13.1 17.0 93 0.7 S 39 46 21 25 1010.8 1010.6 0.0
 
Date/Time
WST
Temp
°C
App
Temp
°C
Dew
Point
°C
Rel
Hum
%
Delta-T
°C
Wind Press
QNH
hPa
Press
MSL
hPa
Rain since
9am
mm
Dir  Spd
km/h
Gust
km/h
Spd
kts
Gust
kts
02/11:30pm 18.1 13.9 17.1 94 0.6 S 35 46 19 25 1011.0 1010.8 0.0
02/11:00pm 18.2 14.3 17.0 93 0.7 SSW 33 39 18 21 1011.7 1011.5 0.0
02/10:30pm 18.2 14.3 16.4 89 1.1 S 32 41 17 22 1011.8 1011.6 0.0
02/10:00pm 18.1 14.5 16.3 89 1.1 S 30 39 16 21 1012.0 1011.8 0.0
02/09:30pm 18.3 14.2 15.9 86 1.4 SSW 32 39 17 21 1011.9 1011.7 0.0
02/09:00pm 18.2 14.0 15.8 86 1.4 SSW 32 41 17 22 1011.6 1011.4 0.0
02/08:30pm 18.1 14.4 15.0 82 1.8 SSW 28 39 15 21 1011.5 1011.3 0.0
02/08:00pm 18.1 14.3 14.6 80 2.0 SSW 28 35 15 19 1011.4 1011.2 0.0
02/07:30pm 17.9 15.1 14.4 80 2.0 SSW 22 28 12 15 1011.3 1011.1 0.0
02/07:00pm 18.0 14.5 13.5 75 2.6 SSW 24 30 13 16 1011.2 1011.0 0.0
02/06:30pm 18.6 15.5 13.5 72 2.9 SSW 22 32 12 17 1010.8 1010.6 0.0
02/06:00pm 18.9 14.9 12.9 68 3.4 SSW 26 33 14 18 1010.5 1010.3 0.0
02/05:30pm 19.2 14.3 12.7 66 3.7 SW 30 35 16 19 1010.3 1010.1 0.0
02/05:00pm 19.6 14.9 12.1 62 4.2 SW 28 35 15 19 1010.2 1010.0 0.0
02/04:30pm 19.3 14.3 12.3 64 3.9 SW 30 35 16 19 1010.1 1009.9 0.0
02/04:00pm 20.2 15.6 12.4 61 4.4 SW 28 35 15 19 1010.1 1009.9 0.0
02/03:30pm 20.3 15.6 12.0 59 4.6 SSW 28 33 15 18 1010.0 1009.8 0.0
02/03:00pm 19.9 15.6 11.9 60 4.5 SSW 26 32 14 17 1009.9 1009.7 0.0
02/02:30pm 20.0 15.9 11.5 58 4.7 S 24 30 13 16 1010.1 1009.9 0.0
02/02:00pm 20.0 15.2 11.5 58 4.7 S 28 32 15 17 1010.0 1009.8 0.0
02/01:30pm 20.2 15.4 11.7 58 4.7 S 28 33 15 18 1010.1 1009.9 0.0
02/01:00pm 20.8 16.0 11.7 56 5.1 S 28 33 15 18 1010.2 1010.0 0.0
02/12:30pm 20.2 15.6 11.1 56 5.0 S 26 32 14 17 1010.5 1010.3 0.0
02/12:00pm 20.0 15.1 11.2 57 4.8 S 28 33 15 18 1010.6 1010.4 0.0
02/11:30am 20.0 15.8 12.3 61 4.3 SSW 26 32 14 17 1010.8 1010.6 0.0
02/11:00am 20.3 17.0 14.0 67 3.6 S 24 30 13 16 1010.5 1010.3 0.0
02/10:30am 19.2 16.7 14.0 72 3.0 S 20 26 11 14 1010.5 1010.3 0.0
02/10:00am 18.8 15.5 14.1 74 2.7 SSE 24 28 13 15 1010.5 1010.3 0.0
02/09:30am 18.9 15.8 14.6 76 2.5 SSE 24 32 13 17 1010.4 1010.2 0.0
02/09:00am 18.2 15.1 14.5 79 2.1 SSE 24 32 13 17 1010.5 1010.3 0.0
02/08:30am 17.9 14.8 14.6 81 1.9 S 24 30 13 16 1010.6 1010.4 0.0
02/08:00am 17.8 14.9 15.1 84 1.6 S 24 30 13 16 1010.5 1010.3 0.0
02/07:30am 17.3 14.1 15.3 88 1.2 SSE 26 32 14 17 1010.4 1010.2 0.0
02/07:00am 17.1 13.9 15.4 90 1.0 S 26 30 14 16 1010.2 1010.0 0.0
02/06:30am 16.7 12.7 15.1 90 0.9 S 30 37 16 20 1009.9 1009.7 0.0
02/06:00am 16.8 13.1 15.0 89 1.0 S 28 33 15 18 1009.6 1009.4 0.0
02/05:30am 16.9 13.5 14.7 87 1.3 SSW 26 32 14 17 1009.5 1009.3 0.0
02/05:00am 17.0 13.2 14.6 86 1.4 S 28 35 15 19 1009.2 1009.0 0.0
02/04:30am 17.1 12.5 14.7 86 1.4 S 32 37 17 20 1008.7 1008.5 0.0
02/04:00am 17.1 12.8 15.3 89 1.1 S 32 35 17 19 1008.6 1008.4 0.0
02/03:30am 17.1 13.1 15.3 89 1.1 S 30 35 16 19 1008.5 1008.3 0.0
02/03:00am 17.2 13.7 15.4 89 1.1 S 28 35 15 19 1008.5 1008.3 0.0
02/02:30am 17.1 13.1 15.3 89 1.1 S 30 37 16 20 1008.5 1008.3 0.0
02/02:00am 17.1 13.4 15.1 88 1.2 S 28 33 15 18 1008.6 1008.4 0.0
02/01:30am 17.3 14.5 15.3 88 1.2 S 24 30 13 16 1008.8 1008.6 0.0
02/01:00am 17.4 14.2 15.4 88 1.2 S 26 32 14 17 1009.0 1008.8 0.0
02/12:30am 17.6 14.4 15.4 87 1.3 S 26 32 14 17 1009.4 1009.2 0.0
02/12:00am 17.7 14.3 15.7 88 1.2 SSW 28 33 15 18 1009.4 1009.2 0.0
 
Date/Time
WST
Temp
°C
App
Temp
°C
Dew
Point
°C
Rel
Hum
%
Delta-T
°C
Wind Press
QNH
hPa
Press
MSL
hPa
Rain since
9am
mm
Dir  Spd
km/h
Gust
km/h
Spd
kts
Gust
kts
01/11:30pm 17.7 14.0 16.0 90 1.0 S 30 37 16 20 1009.4 1009.2 0.0
01/11:00pm 17.8 14.5 16.1 90 1.0 SSW 28 37 15 20 1009.8 1009.6 0.0
01/10:30pm 17.9 14.9 15.9 88 1.2 SSW 26 32 14 17 1010.0 1009.8 0.0
01/10:00pm 17.9 14.8 15.5 86 1.4 SSW 26 33 14 18 1010.3 1010.1 0.0
01/09:30pm 18.0 13.8 15.6 86 1.4 SSW 32 39 17 21 1010.3 1010.1 0.0
01/09:00pm 18.1 15.0 15.5 85 1.5 SSW 26 33 14 18 1010.4 1010.2 0.0
01/08:30pm 18.1 15.4 15.5 85 1.5 SSW 24 33 13 18 1010.2 1010.0 0.0
01/08:00pm 18.2 15.0 15.3 83 1.7 SSW 26 33 14 18 1009.8 1009.6 0.0
01/07:30pm 18.3 16.0 14.0 76 2.5 SSW 19 26 10 14 1009.7 1009.5 0.0
01/07:00pm 18.3 15.7 15.0 81 1.9 SSW 22 26 12 14 1009.7 1009.5 0.0
01/06:30pm 18.6 14.9 13.9 74 2.7 SSW 26 32 14 17 1009.4 1009.2 0.0
01/06:00pm 18.8 15.7 14.5 76 2.5 SSW 24 30 13 16 1009.4 1009.2 0.0
01/05:30pm 19.1 15.7 15.8 81 2.0 SSW 28 35 15 19 1009.2 1009.0 0.0
01/05:00pm 19.6 16.4 15.3 76 2.5 SSW 26 33 14 18 1009.0 1008.8 0.0
01/04:30pm 19.6 15.4 15.7 78 2.3 SSW 32 39 17 21 1009.1 1008.9 0.0
01/04:00pm 19.5 16.1 16.7 84 1.7 SSW 30 37 16 20 1009.0 1008.8 0.0
01/03:30pm 19.8 16.4 16.8 83 1.8 SSW 30 37 16 20 1009.1 1008.9 0.0
01/03:00pm 19.8 16.4 16.8 83 1.8 SSW 30 37 16 20 1009.3 1009.1 0.0
01/02:30pm 20.1 17.1 16.9 82 1.9 SSW 28 33 15 18 1009.4 1009.2 0.0
01/02:00pm 20.5 17.1 16.7 79 2.3 SSW 30 35 16 19 1009.3 1009.1 0.0
01/01:30pm 20.2 16.9 17.0 82 1.9 SSW 30 35 16 19 1009.3 1009.1 0.0
01/01:00pm 20.2 17.7 17.2 83 1.8 SSW 26 32 14 17 1009.5 1009.3 0.0
01/12:30pm 21.0 18.2 17.4 80 2.2 SSW 28 33 15 18 1009.5 1009.3 0.0
01/12:00pm 20.5 18.2 17.7 84 1.7 SSW 26 32 14 17 1009.6 1009.4 0.0
01/11:30am 19.9 17.6 17.7 87 1.4 SSW 26 32 14 17 1009.8 1009.6 0.0
01/11:00am 20.0 19.1 19.0 94 0.6 SSW 22 28 12 15 1009.8 1009.6 0.0
01/10:30am 19.8 19.1 18.3 91 0.9 SSW 19 24 10 13 1009.9 1009.7 0.0
01/10:00am 20.1 19.3 18.4 90 1.1 SSW 20 22 11 12 1009.8 1009.6 0.0
01/09:30am 19.5 18.5 18.0 91 0.9 SSW 20 26 11 14 1009.7 1009.5 0.0
01/09:00am 19.7 19.1 18.9 95 0.5 SSW 20 24 11 13 1009.6 1009.4 0.0
01/08:30am 19.3 18.2 18.6 96 0.4 SSW 22 30 12 16 1009.6 1009.4 0.0
01/08:00am 18.9 17.1 18.7 99 0.1 SW 26 32 14 17 1009.5 1009.3 0.0
01/07:30am 19.2 19.0 18.5 96 0.4 SW 17 20 9 11 1009.3 1009.1 0.0
01/07:00am 19.5 18.5 17.6 89 1.2 WSW 19 26 10 14 1008.9 1008.7 0.0
01/06:30am 19.1 18.5 17.6 91 0.9 W 17 20 9 11 1008.9 1008.7 0.0
01/06:00am 19.0 18.5 17.0 88 1.2 WSW 15 20 8 11 1008.6 1008.4 0.0
01/05:30am 19.1 18.5 15.6 80 2.1 W 13 15 7 8 1008.2 1008.0 0.0
01/05:00am 18.9 18.3 16.7 87 1.3 WSW 15 19 8 10 1007.8 1007.7 0.0
01/04:30am 18.9 18.6 16.5 86 1.4 WSW 13 20 7 11 1007.5 1007.4 0.0
01/04:00am 18.9 17.3 16.1 84 1.7 WSW 19 28 10 15 1007.5 1007.4 0.0
01/03:30am 18.9 18.1 16.1 84 1.7 W 15 24 8 13 1007.3 1007.2 0.0
01/03:00am 19.0 18.8 16.6 86 1.4 WSW 13 20 7 11 1007.2 1007.1 0.0
01/02:30am 19.1 18.5 16.7 86 1.4 W 15 20 8 11 1006.9 1006.8 0.0
01/02:00am 19.2 19.8 16.8 86 1.5 NW 9 13 5 7 1007.1 1007.0 0.0
01/01:30am 19.3 19.2 16.9 86 1.5 W 13 15 7 8 1007.2 1007.1 0.0
01/01:00am 19.4 20.4 16.8 85 1.6 SSW 7 11 4 6 1007.5 1007.4 0.0
01/12:30am 19.4 18.9 17.7 90 1.0 SW 17 20 9 11 1007.7 1007.6 0.0
01/12:00am 19.5 19.4 17.8 90 1.0 WSW 15 19 8 10 1007.8 1007.7 0.0
 
Date/Time
WST
Temp
°C
App
Temp
°C
Dew
Point
°C
Rel
Hum
%
Delta-T
°C
Wind Press
QNH
hPa
Press
MSL
hPa
Rain since
9am
mm
Dir  Spd
km/h
Gust
km/h
Spd
kts
Gust
kts
30/11:30pm 19.6 18.2 17.0 85 1.6 WSW 20 26 11 14 1008.0 1007.8 0.0
30/11:00pm 19.5 19.1 19.3 99 0.1 WSW 20 24 11 13 1008.1 1007.9 0.0
30/10:30pm 19.6 20.4 19.1 97 0.3 WSW 13 20 7 11 1008.2 1008.0 0.0
30/10:00pm 19.6 19.5 17.9 90 1.1 W 15 20 8 11 1008.2 1008.0 0.0
30/09:30pm 19.6 19.1 17.7 89 1.2 WSW 17 24 9 13 1008.0 1007.8 0.0
30/09:00pm 19.6 19.3 18.3 92 0.8 WSW 17 26 9 14 1007.6 1007.5 0.0
30/08:30pm 19.7 18.9 18.4 92 0.8 W 20 28 11 15 1007.2 1007.1 0.0
30/08:00pm 19.7 19.5 18.4 92 0.8 W 17 22 9 12 1006.9 1006.8 0.0
30/07:30pm 19.7 19.4 18.2 91 0.9 W 17 24 9 13 1006.7 1006.6 0.0
30/07:00pm 19.8 19.0 18.5 92 0.8 W 20 28 11 15 1006.5 1006.4 0.0
30/06:30pm 20.0 19.2 18.5 91 0.9 W 20 28 11 15 1006.5 1006.4 0.0
30/06:00pm 20.5 19.2 19.0 91 0.9 W 24 32 13 17 1006.3 1006.2 0.0
30/05:30pm 20.8 19.2 19.1 90 1.1 WNW 26 35 14 19 1006.1 1006.0 0.0

Latest Capital City Observations: Canberra | Sydney | Melbourne | Brisbane | Adelaide | Perth | Hobart | Darwin

Other formats

Comma delimited format used in spreadsheet applications
http://www.bom.gov.au/fwo/IDW60901/IDW60901.94602.axf

JavaScript Object Notation format (JSON) in row-major order
http://www.bom.gov.au/fwo/IDW60901/IDW60901.94602.json

Data quality

Most of these data are generated automatically and are frequently updated. Quality checks on data are not normally performed. It is possible for incorrect values to appear. Refer to information at About Latest Weather Observations and please check the disclaimer before using these data.